Time,TemperatureF,DewpointF,PressureIn,WindDirection,WindDirectionDegrees,WindSpeedMPH,WindSpeedGustMPH,Humidity,HourlyPrecipIn,Conditions,Clouds,dailyrainin,SolarRadiationWatts/m^2,SoftwareType,DateUTC
2013-02-03 00:22:00,28.0,22.0,-100.00,WSW,243,4.0,7.0,79,0.00,,,0.13,0.000000,,2013-02-03 05:22:00,
2013-02-03 00:32:00,28.0,22.0,-100.00,WSW,243,4.0,7.0,79,0.00,,,0.13,0.000000,,2013-02-03 05:32:00,
2013-02-03 00:42:00,28.0,22.0,-100.00,WSW,243,4.0,7.0,79,0.00,,,0.13,0.000000,,2013-02-03 05:42:00,
2013-02-03 00:52:00,28.0,22.0,-100.00,WSW,243,4.0,7.0,79,0.00,,,0.13,0.000000,,2013-02-03 05:52:00,
2013-02-03 01:21:00,28.0,21.0,-100.00,West,261,3.0,7.0,76,0.00,,,0.13,0.000000,,2013-02-03 06:21:00,
2013-02-03 01:32:00,28.0,21.0,-100.00,West,261,3.0,7.0,76,0.00,,,0.13,0.000000,,2013-02-03 06:32:00,
2013-02-03 01:42:00,28.0,21.0,-100.00,West,261,3.0,7.0,76,0.00,,,0.13,0.000000,,2013-02-03 06:42:00,
2013-02-03 01:52:00,28.0,21.0,-100.00,West,261,3.0,7.0,76,0.00,,,0.13,0.000000,,2013-02-03 06:52:00,
2013-02-03 02:21:00,27.0,21.0,-100.00,WSW,254,3.0,8.0,77,0.00,,,0.13,0.000000,,2013-02-03 07:21:00,
2013-02-03 02:32:00,27.0,21.0,-100.00,WSW,254,3.0,8.0,77,0.00,,,0.13,0.000000,,2013-02-03 07:32:00,
2013-02-03 02:42:00,27.0,21.0,-100.00,WSW,254,3.0,8.0,77,0.00,,,0.13,0.000000,,2013-02-03 07:42:00,
2013-02-03 02:52:00,27.0,21.0,-100.00,WSW,254,3.0,8.0,77,0.00,,,0.13,0.000000,,2013-02-03 07:52:00,
2013-02-03 03:22:00,26.0,19.0,-100.00,WSW,252,4.0,10.0,75,0.00,,,0.13,0.000000,,2013-02-03 08:22:00,
2013-02-03 03:32:00,26.0,19.0,-100.00,WSW,252,4.0,10.0,75,0.00,,,0.13,0.000000,,2013-02-03 08:32:00,
2013-02-03 03:42:00,26.0,19.0,-100.00,WSW,252,4.0,10.0,75,0.00,,,0.13,0.000000,,2013-02-03 08:42:00,
2013-02-03 03:52:00,26.0,19.0,-100.00,WSW,252,4.0,10.0,75,0.00,,,0.13,0.000000,,2013-02-03 08:52:00,
2013-02-03 04:22:00,24.0,16.0,-100.00,WSW,251,4.0,9.0,72,0.00,,,0.13,0.000000,,2013-02-03 09:22:00,
2013-02-03 04:32:00,24.0,16.0,-100.00,WSW,251,4.0,9.0,72,0.00,,,0.13,0.000000,,2013-02-03 09:32:00,
2013-02-03 04:42:00,24.0,16.0,-100.00,WSW,251,4.0,9.0,72,0.00,,,0.13,0.000000,,2013-02-03 09:42:00,
2013-02-03 04:52:00,24.0,16.0,-100.00,WSW,251,4.0,9.0,72,0.00,,,0.13,0.000000,,2013-02-03 09:52:00,
2013-02-03 05:21:00,22.0,14.0,-100.00,WSW,256,4.0,11.0,72,0.00,,,0.13,0.000000,,2013-02-03 10:21:00,
2013-02-03 05:32:00,22.0,14.0,-100.00,WSW,256,4.0,11.0,72,0.00,,,0.13,0.000000,,2013-02-03 10:32:00,
2013-02-03 05:42:00,22.0,14.0,-100.00,WSW,256,4.0,11.0,72,0.00,,,0.13,0.000000,,2013-02-03 10:42:00,
2013-02-03 05:52:00,22.0,14.0,-100.00,WSW,256,4.0,11.0,72,0.00,,,0.13,0.000000,,2013-02-03 10:52:00,
2013-02-03 06:22:00,21.0,14.0,-100.00,West,277,3.0,9.0,73,0.00,,,0.13,0.000000,,2013-02-03 11:22:00,
2013-02-03 06:32:00,21.0,14.0,-100.00,West,277,3.0,9.0,73,0.00,,,0.13,0.000000,,2013-02-03 11:32:00,
2013-02-03 06:42:00,21.0,14.0,-100.00,West,277,3.0,9.0,73,0.00,,,0.13,0.000000,,2013-02-03 11:42:00,
2013-02-03 06:52:00,21.0,14.0,-100.00,West,277,3.0,9.0,73,0.00,,,0.13,0.000000,,2013-02-03 11:52:00,
2013-02-03 07:22:00,21.0,14.0,-100.00,West,262,4.0,9.0,74,0.00,,,0.13,0.000000,,2013-02-03 12:22:00,
2013-02-03 07:32:00,21.0,14.0,-100.00,West,262,4.0,9.0,74,0.00,,,0.13,0.000000,,2013-02-03 12:32:00,
2013-02-03 07:42:00,21.0,14.0,-100.00,West,262,4.0,9.0,74,0.00,,,0.13,0.000000,,2013-02-03 12:42:00,
2013-02-03 07:53:00,21.0,14.0,-100.00,West,262,4.0,9.0,74,0.00,,,0.13,0.000000,,2013-02-03 12:53:00,
2013-02-03 08:22:00,21.0,15.0,-100.00,West,265,4.0,9.0,78,0.00,,,0.13,0.000000,,2013-02-03 13:22:00,
2013-02-03 08:32:00,21.0,15.0,-100.00,West,265,4.0,9.0,78,0.00,,,0.13,0.000000,,2013-02-03 13:32:00,
2013-02-03 08:42:00,21.0,15.0,-100.00,West,265,4.0,9.0,78,0.00,,,0.13,0.000000,,2013-02-03 13:42:00,
2013-02-03 08:52:00,21.0,15.0,-100.00,West,265,4.0,9.0,78,0.00,,,0.13,0.000000,,2013-02-03 13:52:00,
2013-02-03 09:22:00,21.0,13.0,-100.00,West,273,5.0,12.0,71,0.00,,,0.13,10.000000,,2013-02-03 14:22:00,
2013-02-03 09:32:00,21.0,13.0,-100.00,West,273,5.0,12.0,71,0.00,,,0.13,10.000000,,2013-02-03 14:32:00,
2013-02-03 09:42:00,21.0,13.0,-100.00,West,273,5.0,12.0,71,0.00,,,0.13,10.000000,,2013-02-03 14:42:00,
2013-02-03 09:52:00,21.0,13.0,-100.00,West,273,5.0,12.0,71,0.00,,,0.13,10.000000,,2013-02-03 14:52:00,
2013-02-03 10:23:00,22.0,13.0,-100.00,West,278,5.0,12.0,69,0.00,,,0.13,49.000000,,2013-02-03 15:23:00,
2013-02-03 10:33:00,22.0,13.0,-100.00,West,278,5.0,12.0,69,0.00,,,0.13,49.000000,,2013-02-03 15:33:00,
2013-02-03 10:42:00,22.0,13.0,-100.00,West,278,5.0,12.0,69,0.00,,,0.13,49.000000,,2013-02-03 15:42:00,
2013-02-03 10:51:00,22.0,13.0,-100.00,West,278,5.0,12.0,69,0.00,,,0.13,49.000000,,2013-02-03 15:51:00,
2013-02-03 11:22:00,25.0,15.0,-100.00,West,273,5.0,12.0,64,0.00,,,0.13,138.000000,,2013-02-03 16:22:00,
2013-02-03 11:33:00,25.0,15.0,-100.00,West,273,5.0,12.0,64,0.00,,,0.13,138.000000,,2013-02-03 16:33:00,
2013-02-03 11:42:00,25.0,15.0,-100.00,West,273,5.0,12.0,64,0.00,,,0.13,138.000000,,2013-02-03 16:42:00,
2013-02-03 11:52:00,25.0,15.0,-100.00,West,273,5.0,12.0,64,0.00,,,0.13,138.000000,,2013-02-03 16:52:00,
2013-02-03 12:22:00,26.0,15.0,-100.00,West,281,5.0,10.0,63,0.01,,,0.14,201.000000,,2013-02-03 17:22:00,
2013-02-03 12:32:00,26.0,15.0,-100.00,West,281,5.0,10.0,63,0.01,,,0.14,201.000000,,2013-02-03 17:32:00,
2013-02-03 12:42:00,26.0,15.0,-100.00,West,281,5.0,10.0,63,0.01,,,0.14,201.000000,,2013-02-03 17:42:00,
2013-02-03 12:52:00,26.0,15.0,-100.00,West,281,5.0,10.0,63,0.01,,,0.14,201.000000,,2013-02-03 17:52:00,
2013-02-03 13:23:00,26.0,16.0,-100.00,WNW,282,6.0,14.0,66,0.01,,,0.15,195.000000,,2013-02-03 18:23:00,
2013-02-03 13:33:00,26.0,16.0,-100.00,WNW,282,6.0,14.0,66,0.01,,,0.15,195.000000,,2013-02-03 18:33:00,
2013-02-03 13:42:00,26.0,16.0,-100.00,WNW,282,6.0,14.0,66,0.01,,,0.15,195.000000,,2013-02-03 18:42:00,
2013-02-03 13:52:00,26.0,16.0,-100.00,WNW,282,6.0,14.0,66,0.01,,,0.15,195.000000,,2013-02-03 18:52:00,
2013-02-03 14:22:00,25.0,17.0,-100.00,West,264,5.0,12.0,70,0.00,,,0.10,118.000000,,2013-02-03 19:22:00,
2013-02-03 14:32:00,25.0,17.0,-100.00,West,264,5.0,12.0,70,0.00,,,0.10,118.000000,,2013-02-03 19:32:00,
2013-02-03 14:42:00,25.0,17.0,-100.00,West,264,5.0,12.0,70,0.00,,,0.10,118.000000,,2013-02-03 19:42:00,
2013-02-03 14:51:00,25.0,17.0,-100.00,West,264,5.0,12.0,70,0.00,,,0.10,118.000000,,2013-02-03 19:51:00,
2013-02-03 15:22:00,25.0,18.0,-100.00,West,274,4.0,14.0,75,0.00,,,0.06,72.000000,,2013-02-03 20:22:00,
2013-02-03 15:33:00,25.0,18.0,-100.00,West,274,4.0,14.0,75,0.00,,,0.06,72.000000,,2013-02-03 20:33:00,
2013-02-03 15:42:00,25.0,18.0,-100.00,West,274,4.0,14.0,75,0.00,,,0.06,72.000000,,2013-02-03 20:42:00,
2013-02-03 15:52:00,25.0,18.0,-100.00,West,274,4.0,14.0,75,0.00,,,0.06,72.000000,,2013-02-03 20:52:00,
2013-02-03 16:22:00,25.0,20.0,-100.00,West,263,4.0,13.0,80,0.00,,,0.03,38.000000,,2013-02-03 21:22:00,
2013-02-03 16:33:00,25.0,20.0,-100.00,West,263,4.0,13.0,80,0.00,,,0.03,38.000000,,2013-02-03 21:33:00,
2013-02-03 16:42:00,25.0,20.0,-100.00,West,263,4.0,13.0,80,0.00,,,0.03,38.000000,,2013-02-03 21:42:00,
2013-02-03 16:52:00,25.0,20.0,-100.00,West,263,4.0,13.0,80,0.00,,,0.03,38.000000,,2013-02-03 21:52:00,
2013-02-03 17:22:00,25.0,20.0,-100.00,West,264,5.0,12.0,81,0.00,,,0.02,30.000000,,2013-02-03 22:22:00,
2013-02-03 17:32:00,25.0,20.0,-100.00,West,264,5.0,12.0,81,0.00,,,0.02,30.000000,,2013-02-03 22:32:00,
2013-02-03 17:42:00,25.0,20.0,-100.00,West,264,5.0,12.0,81,0.00,,,0.02,30.000000,,2013-02-03 22:42:00,
2013-02-03 17:51:00,25.0,20.0,-100.00,West,264,5.0,12.0,81,0.00,,,0.02,30.000000,,2013-02-03 22:51:00,
2013-02-03 18:22:00,24.0,18.0,-100.00,West,272,5.0,14.0,79,0.00,,,0.02,15.000000,,2013-02-03 23:22:00,
2013-02-03 18:32:00,24.0,18.0,-100.00,West,272,5.0,14.0,79,0.00,,,0.02,15.000000,,2013-02-03 23:32:00,
2013-02-03 18:42:00,24.0,18.0,-100.00,West,272,5.0,14.0,79,0.00,,,0.02,15.000000,,2013-02-03 23:42:00,
2013-02-03 18:52:00,24.0,18.0,-100.00,West,272,5.0,14.0,79,0.00,,,0.02,15.000000,,2013-02-03 23:52:00,
2013-02-03 19:22:00,24.0,19.0,-100.00,West,262,3.0,9.0,82,0.00,,,0.02,1.000000,,2013-02-04 00:22:00,
2013-02-03 19:32:00,24.0,19.0,-100.00,West,262,3.0,9.0,82,0.00,,,0.02,1.000000,,2013-02-04 00:32:00,
2013-02-03 19:42:00,24.0,19.0,-100.00,West,262,3.0,9.0,82,0.00,,,0.02,1.000000,,2013-02-04 00:42:00,
2013-02-03 19:51:00,24.0,19.0,-100.00,West,262,3.0,9.0,82,0.00,,,0.02,1.000000,,2013-02-04 00:51:00,
2013-02-03 20:21:00,24.0,18.0,-100.00,West,280,5.0,12.0,77,0.00,,,-99.99,0.000000,,2013-02-04 01:21:00,
2013-02-03 20:32:00,24.0,18.0,-100.00,West,280,5.0,12.0,77,0.00,,,-99.99,0.000000,,2013-02-04 01:32:00,
2013-02-03 20:42:00,24.0,18.0,-100.00,West,280,5.0,12.0,77,0.00,,,-99.99,0.000000,,2013-02-04 01:42:00,
2013-02-03 20:52:00,24.0,18.0,-100.00,West,280,5.0,12.0,77,0.00,,,-99.99,0.000000,,2013-02-04 01:52:00,
2013-02-03 21:21:00,20.0,15.0,-100.00,West,260,1.0,12.0,81,0.00,,,0.02,0.000000,,2013-02-04 02:21:00,
2013-02-03 21:32:00,20.0,15.0,-100.00,West,260,1.0,12.0,81,0.00,,,0.02,0.000000,,2013-02-04 02:32:00,
2013-02-03 21:42:00,20.0,15.0,-100.00,West,260,1.0,12.0,81,0.00,,,0.02,0.000000,,2013-02-04 02:42:00,
2013-02-03 21:52:00,20.0,15.0,-100.00,West,260,1.0,12.0,81,0.00,,,0.02,0.000000,,2013-02-04 02:52:00,
2013-02-03 22:21:00,19.0,16.0,-100.00,SW,227,2.0,6.0,86,0.00,,,0.02,0.000000,,2013-02-04 03:21:00,
2013-02-03 22:32:00,19.0,16.0,-100.00,SW,227,2.0,6.0,86,0.00,,,0.02,0.000000,,2013-02-04 03:32:00,
2013-02-03 22:42:00,19.0,16.0,-100.00,SW,227,2.0,6.0,86,0.00,,,0.02,0.000000,,2013-02-04 03:42:00,
2013-02-03 22:51:00,19.0,16.0,-100.00,SW,227,2.0,6.0,86,0.00,,,0.02,0.000000,,2013-02-04 03:51:00,
2013-02-03 23:22:00,18.0,16.0,-100.00,WSW,241,1.0,5.0,90,0.00,,,0.02,0.000000,,2013-02-04 04:22:00,
2013-02-03 23:32:00,18.0,16.0,-100.00,WSW,241,1.0,5.0,90,0.00,,,0.02,0.000000,,2013-02-04 04:32:00,
2013-02-03 23:42:00,18.0,16.0,-100.00,WSW,241,1.0,5.0,90,0.00,,,0.02,0.000000,,2013-02-04 04:42:00,
2013-02-03 23:52:00,18.0,16.0,-100.00,WSW,241,1.0,5.0,90,0.00,,,0.02,0.000000,,2013-02-04 04:52:00,